International Virtual Aviation Organisation

Russian Federation and Kazakhstan MCD

 

Карточка аэропорта ULAA

Внимание!
Информация на этой странице в стадии наполнения.
Если вы не увидели какой-то информации, или заметили неточность - пожалуйста сообщите нам!
Спасибо!
Команда RU-STAFF
Название аэропортаТалаги
Название аэропорта (англ.)Talagi
Превышение62 ft. (18.9 m.)
Координаты64°36.018', 40°43.002'
Высота перехода800m
Эшелон переходаQFE>=760mm:FL040; QFE<760=>733:FL050; QFE<733:FL060
Коды ответчика3120-3127
Зона ОрВДАрхангельск РПИ (ULAA)
Данные METARULAA 192330Z 11003MPS 2500 R08/P2000N -SN OVC007 M03/M04 Q0989 R08/590635 NOSIG RMK QFE740/0987
Проноз погоды (TAF)ULAA 192230Z 1922/2021 12004MPS 1000 SN BR OVC004 TEMPO 1922/2004 08005G10MPS 0400 +FZDZ +SN BKN002 BKN011 FM200400 10005MPS 3100 -SN BKN011 TEMPO 2004/2021 06006G12MPS 1000 SHSN BKN003 BKN011CB
NOTAMshow/hide NOTAM
AWOS   TABLE

Информация о ВПП


Диспетчерские позиции

Позывной Наименование органа УВД Частота
ULAA_APPАрхангельск-Подход122.0
ULAA_TWRАрхангельск-Вышка121.8



Спутниковое изображение